sensor_id;sensor_type;location;lat;lon;timestamp;temperature;humidity
9542;DHT22;4809;48.224;8.572;2023-05-21T00:00:20;13.90;99.90
9542;DHT22;4809;48.224;8.572;2023-05-21T00:02:46;13.90;99.90
9542;DHT22;4809;48.224;8.572;2023-05-21T00:05:12;14.00;99.90
9542;DHT22;4809;48.224;8.572;2023-05-21T00:07:39;14.00;99.90
9542;DHT22;4809;48.224;8.572;2023-05-21T00:10:06;14.00;99.90
9542;DHT22;4809;48.224;8.572;2023-05-21T00:12:31;14.00;99.90
9542;DHT22;4809;48.224;8.572;2023-05-21T00:14:58;14.00;99.90
9542;DHT22;4809;48.224;8.572;2023-05-21T00:17:24;14.00;99.90
9542;DHT22;4809;48.224;8.572;2023-05-21T00:19:50;14.00;99.90
9542;DHT22;4809;48.224;8.572;2023-05-21T00:22:16;14.00;99.90
9542;DHT22;4809;48.224;8.572;2023-05-21T00:24:42;14.00;99.90
9542;DHT22;4809;48.224;8.572;2023-05-21T00:27:11;13.90;99.90
9542;DHT22;4809;48.224;8.572;2023-05-21T00:29:36;13.90;99.90
9542;DHT22;4809;48.224;8.572;2023-05-21T00:32:02;13.90;99.90
9542;DHT22;4809;48.224;8.572;2023-05-21T00:34:28;13.90;99.90
9542;DHT22;4809;48.224;8.572;2023-05-21T00:36:54;13.90;99.90
9542;DHT22;4809;48.224;8.572;2023-05-21T00:39:20;13.80;99.90
9542;DHT22;4809;48.224;8.572;2023-05-21T00:41:46;13.80;99.90
9542;DHT22;4809;48.224;8.572;2023-05-21T00:44:13;13.90;99.90
9542;DHT22;4809;48.224;8.572;2023-05-21T00:46:39;13.80;99.90
9542;DHT22;4809;48.224;8.572;2023-05-21T00:49:05;13.80;99.90
9542;DHT22;4809;48.224;8.572;2023-05-21T00:51:31;13.80;99.90
9542;DHT22;4809;48.224;8.572;2023-05-21T00:53:57;13.70;99.90
9542;DHT22;4809;48.224;8.572;2023-05-21T00:56:24;13.60;99.90
9542;DHT22;4809;48.224;8.572;2023-05-21T00:58:51;13.60;99.90
9542;DHT22;4809;48.224;8.572;2023-05-21T01:01:18;13.50;99.90
9542;DHT22;4809;48.224;8.572;2023-05-21T01:03:43;13.40;99.90
9542;DHT22;4809;48.224;8.572;2023-05-21T01:06:10;13.40;99.90
9542;DHT22;4809;48.224;8.572;2023-05-21T01:08:36;13.30;99.90
9542;DHT22;4809;48.224;8.572;2023-05-21T01:11:03;13.30;99.90
9542;DHT22;4809;48.224;8.572;2023-05-21T01:13:30;13.30;99.90
9542;DHT22;4809;48.224;8.572;2023-05-21T01:15:57;13.20;99.90
9542;DHT22;4809;48.224;8.572;2023-05-21T01:18:24;13.20;99.90
9542;DHT22;4809;48.224;8.572;2023-05-21T01:20:50;13.20;99.90
9542;DHT22;4809;48.224;8.572;2023-05-21T01:23:17;13.10;99.90
9542;DHT22;4809;48.224;8.572;2023-05-21T01:25:44;13.10;99.90
9542;DHT22;4809;48.224;8.572;2023-05-21T01:28:10;13.00;99.90
9542;DHT22;4809;48.224;8.572;2023-05-21T01:30:37;13.00;99.90
9542;DHT22;4809;48.224;8.572;2023-05-21T01:35:51;13.00;99.90
9542;DHT22;4809;48.224;8.572;2023-05-21T01:38:25;13.00;99.90
9542;DHT22;4809;48.224;8.572;2023-05-21T01:40:57;13.00;99.90
9542;DHT22;4809;48.224;8.572;2023-05-21T01:43:26;12.90;99.90
9542;DHT22;4809;48.224;8.572;2023-05-21T01:45:54;12.80;99.90
9542;DHT22;4809;48.224;8.572;2023-05-21T01:48:23;12.80;99.90
9542;DHT22;4809;48.224;8.572;2023-05-21T01:50:50;12.80;99.90
9542;DHT22;4809;48.224;8.572;2023-05-21T01:53:17;12.70;99.90
9542;DHT22;4809;48.224;8.572;2023-05-21T01:55:43;12.80;99.90
9542;DHT22;4809;48.224;8.572;2023-05-21T01:58:09;12.80;99.90
9542;DHT22;4809;48.224;8.572;2023-05-21T02:00:35;12.80;99.90
9542;DHT22;4809;48.224;8.572;2023-05-21T02:03:01;12.90;99.90
9542;DHT22;4809;48.224;8.572;2023-05-21T02:05:27;12.90;99.90
9542;DHT22;4809;48.224;8.572;2023-05-21T02:07:53;12.90;99.90
9542;DHT22;4809;48.224;8.572;2023-05-21T02:10:19;12.90;99.90
9542;DHT22;4809;48.224;8.572;2023-05-21T02:12:45;12.90;99.90
9542;DHT22;4809;48.224;8.572;2023-05-21T02:15:10;12.90;99.90
9542;DHT22;4809;48.224;8.572;2023-05-21T02:17:38;13.00;99.90
9542;DHT22;4809;48.224;8.572;2023-05-21T02:20:05;13.00;99.90
9542;DHT22;4809;48.224;8.572;2023-05-21T02:22:42;13.00;99.90
9542;DHT22;4809;48.224;8.572;2023-05-21T02:25:08;13.00;99.90
9542;DHT22;4809;48.224;8.572;2023-05-21T02:27:34;13.00;99.90
9542;DHT22;4809;48.224;8.572;2023-05-21T02:30:02;13.00;99.90
9542;DHT22;4809;48.224;8.572;2023-05-21T02:32:29;13.00;99.90
9542;DHT22;4809;48.224;8.572;2023-05-21T02:34:56;13.00;99.90
9542;DHT22;4809;48.224;8.572;2023-05-21T02:37:24;13.00;99.90
9542;DHT22;4809;48.224;8.572;2023-05-21T02:39:50;12.90;99.90
9542;DHT22;4809;48.224;8.572;2023-05-21T02:42:15;12.90;99.90
9542;DHT22;4809;48.224;8.572;2023-05-21T02:44:41;12.90;99.90
9542;DHT22;4809;48.224;8.572;2023-05-21T02:47:06;13.00;99.90
9542;DHT22;4809;48.224;8.572;2023-05-21T02:49:34;13.00;99.90
9542;DHT22;4809;48.224;8.572;2023-05-21T02:52:00;12.90;99.90
9542;DHT22;4809;48.224;8.572;2023-05-21T02:54:26;12.90;99.90
9542;DHT22;4809;48.224;8.572;2023-05-21T02:56:51;12.90;99.90
9542;DHT22;4809;48.224;8.572;2023-05-21T02:59:17;12.90;99.90
9542;DHT22;4809;48.224;8.572;2023-05-21T03:01:43;12.80;99.90
9542;DHT22;4809;48.224;8.572;2023-05-21T03:04:09;12.80;99.90
9542;DHT22;4809;48.224;8.572;2023-05-21T03:06:35;12.70;99.90
9542;DHT22;4809;48.224;8.572;2023-05-21T03:09:04;12.60;99.90
9542;DHT22;4809;48.224;8.572;2023-05-21T03:11:30;12.60;99.90
9542;DHT22;4809;48.224;8.572;2023-05-21T03:13:56;12.60;99.90
9542;DHT22;4809;48.224;8.572;2023-05-21T03:16:21;12.60;99.90
9542;DHT22;4809;48.224;8.572;2023-05-21T03:18:47;12.60;99.90
9542;DHT22;4809;48.224;8.572;2023-05-21T03:21:13;12.60;99.90
9542;DHT22;4809;48.224;8.572;2023-05-21T03:23:40;12.60;99.90
9542;DHT22;4809;48.224;8.572;2023-05-21T03:26:07;12.60;99.90
9542;DHT22;4809;48.224;8.572;2023-05-21T03:28:34;12.50;99.90
9542;DHT22;4809;48.224;8.572;2023-05-21T03:31:00;12.50;99.90
9542;DHT22;4809;48.224;8.572;2023-05-21T03:33:25;12.40;99.90
9542;DHT22;4809;48.224;8.572;2023-05-21T03:35:51;12.50;99.90
9542;DHT22;4809;48.224;8.572;2023-05-21T03:38:17;12.50;99.90
9542;DHT22;4809;48.224;8.572;2023-05-21T03:40:42;12.40;99.90
9542;DHT22;4809;48.224;8.572;2023-05-21T03:43:08;12.40;99.90
9542;DHT22;4809;48.224;8.572;2023-05-21T03:45:34;12.30;99.90
9542;DHT22;4809;48.224;8.572;2023-05-21T03:47:59;12.20;99.90
9542;DHT22;4809;48.224;8.572;2023-05-21T03:50:26;12.30;99.90
9542;DHT22;4809;48.224;8.572;2023-05-21T03:52:52;12.30;99.90
9542;DHT22;4809;48.224;8.572;2023-05-21T03:55:17;12.30;99.90
9542;DHT22;4809;48.224;8.572;2023-05-21T03:57:43;12.30;99.90
9542;DHT22;4809;48.224;8.572;2023-05-21T04:00:09;12.30;99.90
9542;DHT22;4809;48.224;8.572;2023-05-21T04:02:35;12.30;99.90
9542;DHT22;4809;48.224;8.572;2023-05-21T04:05:00;12.30;99.90
9542;DHT22;4809;48.224;8.572;2023-05-21T04:07:26;12.30;99.90
9542;DHT22;4809;48.224;8.572;2023-05-21T04:09:54;12.30;99.90
9542;DHT22;4809;48.224;8.572;2023-05-21T04:12:20;12.20;99.90
9542;DHT22;4809;48.224;8.572;2023-05-21T04:14:47;12.30;99.90
9542;DHT22;4809;48.224;8.572;2023-05-21T04:17:12;12.30;99.90
9542;DHT22;4809;48.224;8.572;2023-05-21T04:19:38;12.30;99.90
9542;DHT22;4809;48.224;8.572;2023-05-21T04:22:04;12.30;99.90
9542;DHT22;4809;48.224;8.572;2023-05-21T04:24:30;12.20;99.90
9542;DHT22;4809;48.224;8.572;2023-05-21T04:26:56;12.30;99.90
9542;DHT22;4809;48.224;8.572;2023-05-21T04:29:26;12.30;99.90
9542;DHT22;4809;48.224;8.572;2023-05-21T04:31:51;12.20;99.90
9542;DHT22;4809;48.224;8.572;2023-05-21T04:34:17;12.20;99.90
9542;DHT22;4809;48.224;8.572;2023-05-21T04:36:44;12.30;99.90
9542;DHT22;4809;48.224;8.572;2023-05-21T04:39:11;12.30;99.90
9542;DHT22;4809;48.224;8.572;2023-05-21T04:41:37;12.30;99.90
9542;DHT22;4809;48.224;8.572;2023-05-21T04:44:06;12.30;99.90
9542;DHT22;4809;48.224;8.572;2023-05-21T04:46:31;12.40;99.90
9542;DHT22;4809;48.224;8.572;2023-05-21T04:49:02;12.40;99.90
9542;DHT22;4809;48.224;8.572;2023-05-21T04:51:28;12.40;99.90
9542;DHT22;4809;48.224;8.572;2023-05-21T04:53:54;12.50;99.90
9542;DHT22;4809;48.224;8.572;2023-05-21T04:56:20;12.50;99.90
9542;DHT22;4809;48.224;8.572;2023-05-21T04:58:56;12.60;99.90
9542;DHT22;4809;48.224;8.572;2023-05-21T05:01:23;12.70;99.90
9542;DHT22;4809;48.224;8.572;2023-05-21T05:03:50;12.70;99.90
9542;DHT22;4809;48.224;8.572;2023-05-21T05:06:16;12.80;99.90
9542;DHT22;4809;48.224;8.572;2023-05-21T05:08:41;12.80;99.90
9542;DHT22;4809;48.224;8.572;2023-05-21T05:11:07;12.90;99.90
9542;DHT22;4809;48.224;8.572;2023-05-21T05:13:33;12.90;99.90
9542;DHT22;4809;48.224;8.572;2023-05-21T05:15:59;12.90;99.90
9542;DHT22;4809;48.224;8.572;2023-05-21T05:18:26;13.00;99.90
9542;DHT22;4809;48.224;8.572;2023-05-21T05:20:51;13.00;99.90
9542;DHT22;4809;48.224;8.572;2023-05-21T05:23:17;13.10;99.90
9542;DHT22;4809;48.224;8.572;2023-05-21T05:25:42;13.10;99.90
9542;DHT22;4809;48.224;8.572;2023-05-21T05:28:08;13.20;99.90
9542;DHT22;4809;48.224;8.572;2023-05-21T05:30:34;13.30;99.90
9542;DHT22;4809;48.224;8.572;2023-05-21T05:33:00;13.40;99.90
9542;DHT22;4809;48.224;8.572;2023-05-21T05:35:26;13.40;99.90
9542;DHT22;4809;48.224;8.572;2023-05-21T05:37:51;13.50;99.90
9542;DHT22;4809;48.224;8.572;2023-05-21T05:40:17;13.60;99.90
9542;DHT22;4809;48.224;8.572;2023-05-21T05:42:43;13.60;99.90
9542;DHT22;4809;48.224;8.572;2023-05-21T05:45:09;13.60;99.90
9542;DHT22;4809;48.224;8.572;2023-05-21T05:47:35;13.60;99.90
9542;DHT22;4809;48.224;8.572;2023-05-21T05:50:00;13.70;99.90
9542;DHT22;4809;48.224;8.572;2023-05-21T05:52:26;13.70;99.90
9542;DHT22;4809;48.224;8.572;2023-05-21T05:54:52;13.70;99.90
9542;DHT22;4809;48.224;8.572;2023-05-21T05:57:17;13.80;99.90
9542;DHT22;4809;48.224;8.572;2023-05-21T05:59:43;13.90;99.90
9542;DHT22;4809;48.224;8.572;2023-05-21T06:02:08;13.90;99.90
9542;DHT22;4809;48.224;8.572;2023-05-21T06:04:34;14.00;99.90
9542;DHT22;4809;48.224;8.572;2023-05-21T06:07:00;14.10;99.90
9542;DHT22;4809;48.224;8.572;2023-05-21T06:09:26;14.20;99.90
9542;DHT22;4809;48.224;8.572;2023-05-21T06:11:51;14.30;99.90
9542;DHT22;4809;48.224;8.572;2023-05-21T06:14:17;14.30;99.90
9542;DHT22;4809;48.224;8.572;2023-05-21T06:16:43;14.40;99.90
9542;DHT22;4809;48.224;8.572;2023-05-21T06:19:08;14.50;99.90
9542;DHT22;4809;48.224;8.572;2023-05-21T06:21:34;14.50;99.90
9542;DHT22;4809;48.224;8.572;2023-05-21T06:23:59;14.50;99.90
9542;DHT22;4809;48.224;8.572;2023-05-21T06:26:25;14.60;99.90
9542;DHT22;4809;48.224;8.572;2023-05-21T06:28:51;14.60;99.90
9542;DHT22;4809;48.224;8.572;2023-05-21T06:31:16;14.80;99.90
9542;DHT22;4809;48.224;8.572;2023-05-21T06:33:43;14.90;99.90
9542;DHT22;4809;48.224;8.572;2023-05-21T06:36:08;15.00;99.90
9542;DHT22;4809;48.224;8.572;2023-05-21T06:38:34;15.00;99.90
9542;DHT22;4809;48.224;8.572;2023-05-21T06:41:01;15.00;99.90
9542;DHT22;4809;48.224;8.572;2023-05-21T06:43:28;15.10;99.90
9542;DHT22;4809;48.224;8.572;2023-05-21T06:45:54;15.20;99.90
9542;DHT22;4809;48.224;8.572;2023-05-21T06:48:19;15.20;99.90
9542;DHT22;4809;48.224;8.572;2023-05-21T06:50:45;15.30;99.90
9542;DHT22;4809;48.224;8.572;2023-05-21T06:53:11;15.40;99.90
9542;DHT22;4809;48.224;8.572;2023-05-21T06:55:40;15.50;99.90
9542;DHT22;4809;48.224;8.572;2023-05-21T06:58:08;15.50;99.90
9542;DHT22;4809;48.224;8.572;2023-05-21T07:00:34;15.60;99.90
9542;DHT22;4809;48.224;8.572;2023-05-21T07:02:59;15.60;99.90
9542;DHT22;4809;48.224;8.572;2023-05-21T07:05:25;15.60;99.90
9542;DHT22;4809;48.224;8.572;2023-05-21T07:07:51;15.70;99.90
9542;DHT22;4809;48.224;8.572;2023-05-21T07:10:16;15.70;99.90
9542;DHT22;4809;48.224;8.572;2023-05-21T07:12:42;15.70;99.90
9542;DHT22;4809;48.224;8.572;2023-05-21T07:15:08;15.70;99.90
9542;DHT22;4809;48.224;8.572;2023-05-21T07:17:34;15.70;99.90
9542;DHT22;4809;48.224;8.572;2023-05-21T07:19:59;15.80;99.90
9542;DHT22;4809;48.224;8.572;2023-05-21T07:22:25;15.80;99.90
9542;DHT22;4809;48.224;8.572;2023-05-21T07:24:51;15.90;99.90
9542;DHT22;4809;48.224;8.572;2023-05-21T07:27:16;15.90;99.90
9542;DHT22;4809;48.224;8.572;2023-05-21T07:29:42;16.00;99.90
9542;DHT22;4809;48.224;8.572;2023-05-21T07:32:08;16.10;99.90
9542;DHT22;4809;48.224;8.572;2023-05-21T07:34:33;16.10;99.90
9542;DHT22;4809;48.224;8.572;2023-05-21T07:36:59;16.10;99.90
9542;DHT22;4809;48.224;8.572;2023-05-21T07:39:25;16.10;99.90
9542;DHT22;4809;48.224;8.572;2023-05-21T07:41:50;16.20;99.90
9542;DHT22;4809;48.224;8.572;2023-05-21T07:44:16;16.30;99.90
9542;DHT22;4809;48.224;8.572;2023-05-21T07:46:41;16.30;99.90
9542;DHT22;4809;48.224;8.572;2023-05-21T07:49:07;16.30;99.90
9542;DHT22;4809;48.224;8.572;2023-05-21T07:51:35;16.30;99.90
9542;DHT22;4809;48.224;8.572;2023-05-21T07:54:01;16.50;99.90
9542;DHT22;4809;48.224;8.572;2023-05-21T07:56:26;16.80;99.90
9542;DHT22;4809;48.224;8.572;2023-05-21T07:58:53;17.10;99.90
9542;DHT22;4809;48.224;8.572;2023-05-21T08:01:21;17.50;99.90
9542;DHT22;4809;48.224;8.572;2023-05-21T08:03:48;17.80;99.90
9542;DHT22;4809;48.224;8.572;2023-05-21T08:06:14;18.20;99.90
9542;DHT22;4809;48.224;8.572;2023-05-21T08:08:39;18.50;99.90
9542;DHT22;4809;48.224;8.572;2023-05-21T08:11:05;18.60;99.90
9542;DHT22;4809;48.224;8.572;2023-05-21T08:13:31;18.90;99.90
9542;DHT22;4809;48.224;8.572;2023-05-21T08:15:56;19.30;99.90
9542;DHT22;4809;48.224;8.572;2023-05-21T08:18:22;19.70;99.90
9542;DHT22;4809;48.224;8.572;2023-05-21T08:20:48;20.00;99.90
9542;DHT22;4809;48.224;8.572;2023-05-21T08:23:14;20.20;99.90
9542;DHT22;4809;48.224;8.572;2023-05-21T08:25:40;20.40;99.90
9542;DHT22;4809;48.224;8.572;2023-05-21T08:28:06;20.70;99.90
9542;DHT22;4809;48.224;8.572;2023-05-21T08:30:32;20.80;99.90
9542;DHT22;4809;48.224;8.572;2023-05-21T08:32:58;21.10;99.90
9542;DHT22;4809;48.224;8.572;2023-05-21T08:35:24;21.30;99.90
9542;DHT22;4809;48.224;8.572;2023-05-21T08:37:49;21.20;99.90
9542;DHT22;4809;48.224;8.572;2023-05-21T08:40:15;21.20;99.90
9542;DHT22;4809;48.224;8.572;2023-05-21T08:42:48;21.40;99.90
9542;DHT22;4809;48.224;8.572;2023-05-21T08:45:19;21.50;99.90
9542;DHT22;4809;48.224;8.572;2023-05-21T08:47:44;21.70;99.90
9542;DHT22;4809;48.224;8.572;2023-05-21T08:50:15;21.90;99.90
9542;DHT22;4809;48.224;8.572;2023-05-21T08:52:43;21.90;99.90
9542;DHT22;4809;48.224;8.572;2023-05-21T08:55:11;22.00;99.90
9542;DHT22;4809;48.224;8.572;2023-05-21T08:57:41;22.10;99.90
9542;DHT22;4809;48.224;8.572;2023-05-21T09:00:07;22.20;99.90
9542;DHT22;4809;48.224;8.572;2023-05-21T09:02:33;22.30;99.90
9542;DHT22;4809;48.224;8.572;2023-05-21T09:05:01;22.40;99.90
9542;DHT22;4809;48.224;8.572;2023-05-21T09:07:28;22.70;99.90
9542;DHT22;4809;48.224;8.572;2023-05-21T09:10:16;22.90;99.90
9542;DHT22;4809;48.224;8.572;2023-05-21T09:12:43;23.00;99.90
9542;DHT22;4809;48.224;8.572;2023-05-21T09:15:09;23.20;99.90
9542;DHT22;4809;48.224;8.572;2023-05-21T09:17:34;23.20;99.90
9542;DHT22;4809;48.224;8.572;2023-05-21T09:22:48;23.40;99.90
9542;DHT22;4809;48.224;8.572;2023-05-21T09:25:22;23.30;99.90
9542;DHT22;4809;48.224;8.572;2023-05-21T09:27:49;23.30;99.90
9542;DHT22;4809;48.224;8.572;2023-05-21T09:30:16;23.40;99.90
9542;DHT22;4809;48.224;8.572;2023-05-21T09:32:43;23.70;99.90
9542;DHT22;4809;48.224;8.572;2023-05-21T09:35:13;23.90;99.90
9542;DHT22;4809;48.224;8.572;2023-05-21T09:37:43;24.00;99.90
9542;DHT22;4809;48.224;8.572;2023-05-21T09:40:10;24.20;99.90
9542;DHT22;4809;48.224;8.572;2023-05-21T09:42:48;24.30;99.90
9542;DHT22;4809;48.224;8.572;2023-05-21T09:45:18;24.30;99.90
9542;DHT22;4809;48.224;8.572;2023-05-21T09:47:45;24.40;99.90
9542;DHT22;4809;48.224;8.572;2023-05-21T09:50:12;24.30;99.90
9542;DHT22;4809;48.224;8.572;2023-05-21T09:52:38;24.30;99.90
9542;DHT22;4809;48.224;8.572;2023-05-21T09:55:13;24.60;99.90
9542;DHT22;4809;48.224;8.572;2023-05-21T09:57:43;25.00;99.90
9542;DHT22;4809;48.224;8.572;2023-05-21T10:02:44;25.40;99.90
9542;DHT22;4809;48.224;8.572;2023-05-21T10:05:12;25.60;99.90
9542;DHT22;4809;48.224;8.572;2023-05-21T10:07:48;25.50;99.90
9542;DHT22;4809;48.224;8.572;2023-05-21T10:10:13;25.70;99.90
9542;DHT22;4809;48.224;8.572;2023-05-21T10:12:44;25.90;99.90
9542;DHT22;4809;48.224;8.572;2023-05-21T10:15:15;26.10;99.90
9542;DHT22;4809;48.224;8.572;2023-05-21T10:17:42;26.30;98.00
9542;DHT22;4809;48.224;8.572;2023-05-21T10:20:09;26.30;97.00
9542;DHT22;4809;48.224;8.572;2023-05-21T10:22:36;26.20;95.20
9542;DHT22;4809;48.224;8.572;2023-05-21T10:25:02;26.00;97.10
9542;DHT22;4809;48.224;8.572;2023-05-21T10:27:30;25.80;98.40
9542;DHT22;4809;48.224;8.572;2023-05-21T10:29:58;25.80;96.90
9542;DHT22;4809;48.224;8.572;2023-05-21T10:32:25;25.90;96.80
9542;DHT22;4809;48.224;8.572;2023-05-21T10:34:52;26.10;97.30
9542;DHT22;4809;48.224;8.572;2023-05-21T10:37:22;26.40;96.50
9542;DHT22;4809;48.224;8.572;2023-05-21T10:39:48;26.50;93.90
9542;DHT22;4809;48.224;8.572;2023-05-21T10:48:01;26.90;93.80
9542;DHT22;4809;48.224;8.572;2023-05-21T10:50:49;26.80;94.10
9542;DHT22;4809;48.224;8.572;2023-05-21T11:01:30;27.30;92.50
9542;DHT22;4809;48.224;8.572;2023-05-21T11:03:58;27.40;91.50
9542;DHT22;4809;48.224;8.572;2023-05-21T11:06:25;27.30;91.80
9542;DHT22;4809;48.224;8.572;2023-05-21T11:08:51;27.40;92.80
9542;DHT22;4809;48.224;8.572;2023-05-21T11:11:55;27.60;88.50
9542;DHT22;4809;48.224;8.572;2023-05-21T11:14:31;27.60;89.10
9542;DHT22;4809;48.224;8.572;2023-05-21T11:17:02;27.50;88.40
9542;DHT22;4809;48.224;8.572;2023-05-21T11:19:36;27.70;90.70
9542;DHT22;4809;48.224;8.572;2023-05-21T11:22:19;27.70;90.70
9542;DHT22;4809;48.224;8.572;2023-05-21T11:24:46;27.90;87.30
9542;DHT22;4809;48.224;8.572;2023-05-21T11:27:12;28.00;89.10
9542;DHT22;4809;48.224;8.572;2023-05-21T11:29:44;28.20;87.10
9542;DHT22;4809;48.224;8.572;2023-05-21T11:32:12;28.40;85.70
9542;DHT22;4809;48.224;8.572;2023-05-21T11:34:45;28.50;86.50
9542;DHT22;4809;48.224;8.572;2023-05-21T11:39:46;28.60;85.90
9542;DHT22;4809;48.224;8.572;2023-05-21T11:42:13;29.00;82.00
9542;DHT22;4809;48.224;8.572;2023-05-21T11:44:51;29.00;79.90
9542;DHT22;4809;48.224;8.572;2023-05-21T11:47:18;28.90;78.30
9542;DHT22;4809;48.224;8.572;2023-05-21T11:49:44;29.00;79.70
9542;DHT22;4809;48.224;8.572;2023-05-21T11:52:12;29.10;78.50
9542;DHT22;4809;48.224;8.572;2023-05-21T11:54:51;29.30;81.30
9542;DHT22;4809;48.224;8.572;2023-05-21T11:57:20;29.60;77.80
9542;DHT22;4809;48.224;8.572;2023-05-21T11:59:49;29.80;74.80
9542;DHT22;4809;48.224;8.572;2023-05-21T12:02:19;29.90;72.00
9542;DHT22;4809;48.224;8.572;2023-05-21T12:04:49;30.10;73.60
9542;DHT22;4809;48.224;8.572;2023-05-21T12:07:19;30.00;72.80
9542;DHT22;4809;48.224;8.572;2023-05-21T12:09:49;30.10;74.10
9542;DHT22;4809;48.224;8.572;2023-05-21T12:12:20;30.10;74.50
9542;DHT22;4809;48.224;8.572;2023-05-21T12:14:48;30.10;71.60
9542;DHT22;4809;48.224;8.572;2023-05-21T12:17:19;30.00;69.80
9542;DHT22;4809;48.224;8.572;2023-05-21T12:19:46;30.00;71.40
9542;DHT22;4809;48.224;8.572;2023-05-21T12:22:12;29.80;69.80
9542;DHT22;4809;48.224;8.572;2023-05-21T12:24:39;29.70;72.40
9542;DHT22;4809;48.224;8.572;2023-05-21T12:27:06;29.90;69.70
9542;DHT22;4809;48.224;8.572;2023-05-21T12:29:42;30.00;71.00
9542;DHT22;4809;48.224;8.572;2023-05-21T12:32:12;30.20;69.10
9542;DHT22;4809;48.224;8.572;2023-05-21T12:34:52;30.00;70.90
9542;DHT22;4809;48.224;8.572;2023-05-21T12:37:29;29.90;69.50
9542;DHT22;4809;48.224;8.572;2023-05-21T12:40:01;29.70;71.40
9542;DHT22;4809;48.224;8.572;2023-05-21T12:42:31;29.70;70.50
9542;DHT22;4809;48.224;8.572;2023-05-21T12:45:06;29.90;71.80
9542;DHT22;4809;48.224;8.572;2023-05-21T12:47:32;30.00;69.80
9542;DHT22;4809;48.224;8.572;2023-05-21T12:50:03;30.10;69.80
9542;DHT22;4809;48.224;8.572;2023-05-21T12:52:29;29.90;68.60
9542;DHT22;4809;48.224;8.572;2023-05-21T12:54:58;29.90;65.10
9542;DHT22;4809;48.224;8.572;2023-05-21T12:57:26;29.70;62.80
9542;DHT22;4809;48.224;8.572;2023-05-21T12:59:56;29.30;64.20
9542;DHT22;4809;48.224;8.572;2023-05-21T13:02:39;29.00;66.70
9542;DHT22;4809;48.224;8.572;2023-05-21T13:05:07;28.70;67.00
9542;DHT22;4809;48.224;8.572;2023-05-21T13:07:34;28.60;66.00
9542;DHT22;4809;48.224;8.572;2023-05-21T13:10:02;28.40;66.00
9542;DHT22;4809;48.224;8.572;2023-05-21T13:12:29;28.10;68.20
9542;DHT22;4809;48.224;8.572;2023-05-21T13:14:57;28.00;69.10
9542;DHT22;4809;48.224;8.572;2023-05-21T13:17:23;27.50;70.60
9542;DHT22;4809;48.224;8.572;2023-05-21T13:20:12;27.30;70.70
9542;DHT22;4809;48.224;8.572;2023-05-21T13:22:44;27.00;72.20
9542;DHT22;4809;48.224;8.572;2023-05-21T13:25:12;26.90;72.80
9542;DHT22;4809;48.224;8.572;2023-05-21T13:27:42;26.70;73.90
9542;DHT22;4809;48.224;8.572;2023-05-21T13:30:09;26.20;76.30
9542;DHT22;4809;48.224;8.572;2023-05-21T13:32:39;26.10;77.20
9542;DHT22;4809;48.224;8.572;2023-05-21T13:35:05;25.90;78.90
9542;DHT22;4809;48.224;8.572;2023-05-21T13:37:33;25.80;80.50
9542;DHT22;4809;48.224;8.572;2023-05-21T13:40:04;25.70;78.70
9542;DHT22;4809;48.224;8.572;2023-05-21T13:42:30;25.60;82.30
9542;DHT22;4809;48.224;8.572;2023-05-21T13:44:56;25.60;79.30
9542;DHT22;4809;48.224;8.572;2023-05-21T13:47:22;25.50;79.90
9542;DHT22;4809;48.224;8.572;2023-05-21T13:49:48;25.40;80.00
9542;DHT22;4809;48.224;8.572;2023-05-21T13:52:14;25.30;81.40
9542;DHT22;4809;48.224;8.572;2023-05-21T13:54:42;25.30;82.50
9542;DHT22;4809;48.224;8.572;2023-05-21T13:57:08;25.30;81.70
9542;DHT22;4809;48.224;8.572;2023-05-21T13:59:34;25.30;83.30
9542;DHT22;4809;48.224;8.572;2023-05-21T14:02:00;25.40;83.00
9542;DHT22;4809;48.224;8.572;2023-05-21T14:04:25;25.50;83.60
9542;DHT22;4809;48.224;8.572;2023-05-21T14:06:51;25.60;82.70
9542;DHT22;4809;48.224;8.572;2023-05-21T14:09:17;25.70;81.10
9542;DHT22;4809;48.224;8.572;2023-05-21T14:11:43;25.90;81.30
9542;DHT22;4809;48.224;8.572;2023-05-21T14:14:08;26.30;82.60
9542;DHT22;4809;48.224;8.572;2023-05-21T14:16:34;26.60;78.80
9542;DHT22;4809;48.224;8.572;2023-05-21T14:19:00;26.90;78.00
9542;DHT22;4809;48.224;8.572;2023-05-21T14:21:25;27.20;77.30
9542;DHT22;4809;48.224;8.572;2023-05-21T14:23:51;27.40;76.80
9542;DHT22;4809;48.224;8.572;2023-05-21T14:26:17;27.40;76.30
9542;DHT22;4809;48.224;8.572;2023-05-21T14:28:43;27.30;75.70
9542;DHT22;4809;48.224;8.572;2023-05-21T14:31:10;27.20;76.00
9542;DHT22;4809;48.224;8.572;2023-05-21T14:33:36;27.00;74.90
9542;DHT22;4809;48.224;8.572;2023-05-21T14:36:03;26.70;75.90
9542;DHT22;4809;48.224;8.572;2023-05-21T14:38:29;26.40;75.80
9542;DHT22;4809;48.224;8.572;2023-05-21T14:40:54;26.10;77.10
9542;DHT22;4809;48.224;8.572;2023-05-21T14:43:20;25.70;79.60
9542;DHT22;4809;48.224;8.572;2023-05-21T14:45:46;25.40;79.80
9542;DHT22;4809;48.224;8.572;2023-05-21T14:48:11;25.20;80.90
9542;DHT22;4809;48.224;8.572;2023-05-21T14:50:38;25.10;80.10
9542;DHT22;4809;48.224;8.572;2023-05-21T14:53:05;24.90;81.20
9542;DHT22;4809;48.224;8.572;2023-05-21T14:55:30;24.80;81.80
9542;DHT22;4809;48.224;8.572;2023-05-21T14:57:58;24.70;82.80
9542;DHT22;4809;48.224;8.572;2023-05-21T15:00:24;24.60;82.80
9542;DHT22;4809;48.224;8.572;2023-05-21T15:02:50;24.50;85.10
9542;DHT22;4809;48.224;8.572;2023-05-21T15:05:16;24.30;85.20
9542;DHT22;4809;48.224;8.572;2023-05-21T15:07:43;24.20;85.20
9542;DHT22;4809;48.224;8.572;2023-05-21T15:10:09;24.00;86.50
9542;DHT22;4809;48.224;8.572;2023-05-21T15:12:35;24.00;87.00
9542;DHT22;4809;48.224;8.572;2023-05-21T15:15:01;23.80;88.50
9542;DHT22;4809;48.224;8.572;2023-05-21T15:17:27;23.70;87.90
9542;DHT22;4809;48.224;8.572;2023-05-21T15:19:53;23.70;89.10
9542;DHT22;4809;48.224;8.572;2023-05-21T15:22:19;23.70;87.50
9542;DHT22;4809;48.224;8.572;2023-05-21T15:24:45;23.60;87.10
9542;DHT22;4809;48.224;8.572;2023-05-21T15:27:11;23.50;89.40
9542;DHT22;4809;48.224;8.572;2023-05-21T15:29:37;23.40;89.00
9542;DHT22;4809;48.224;8.572;2023-05-21T15:32:03;23.40;90.00
9542;DHT22;4809;48.224;8.572;2023-05-21T15:34:32;23.40;87.40
9542;DHT22;4809;48.224;8.572;2023-05-21T15:36:58;23.40;88.70
9542;DHT22;4809;48.224;8.572;2023-05-21T15:39:24;23.30;87.80
9542;DHT22;4809;48.224;8.572;2023-05-21T15:41:50;23.30;88.80
9542;DHT22;4809;48.224;8.572;2023-05-21T15:44:18;23.30;88.90
9542;DHT22;4809;48.224;8.572;2023-05-21T15:46:44;23.20;90.00
9542;DHT22;4809;48.224;8.572;2023-05-21T15:49:09;23.10;90.30
9542;DHT22;4809;48.224;8.572;2023-05-21T15:51:35;22.90;90.60
9542;DHT22;4809;48.224;8.572;2023-05-21T15:54:01;22.90;91.20
9542;DHT22;4809;48.224;8.572;2023-05-21T15:56:27;22.80;90.70
9542;DHT22;4809;48.224;8.572;2023-05-21T15:58:52;22.80;91.10
9542;DHT22;4809;48.224;8.572;2023-05-21T16:01:18;22.80;91.10
9542;DHT22;4809;48.224;8.572;2023-05-21T16:03:44;22.70;91.50
9542;DHT22;4809;48.224;8.572;2023-05-21T16:06:09;22.70;92.00
9542;DHT22;4809;48.224;8.572;2023-05-21T16:08:35;22.70;91.80
9542;DHT22;4809;48.224;8.572;2023-05-21T16:11:01;22.60;91.90
9542;DHT22;4809;48.224;8.572;2023-05-21T16:13:27;22.60;92.20
9542;DHT22;4809;48.224;8.572;2023-05-21T16:15:52;22.60;92.50
9542;DHT22;4809;48.224;8.572;2023-05-21T16:18:18;22.50;92.50
9542;DHT22;4809;48.224;8.572;2023-05-21T16:20:44;22.40;92.20
9542;DHT22;4809;48.224;8.572;2023-05-21T16:23:09;22.30;92.40
9542;DHT22;4809;48.224;8.572;2023-05-21T16:25:36;22.20;92.80